CheckWX is a tool to help pilots better visualize weather data.  It is not intended as a substitute for an official pre-flight weather briefing.

19:29:43 UTC

KGGE METAR
Georgetown County Airport
Georgetown, South Carolina, USA
Current

35 mins ago

KGGE 221855Z AUTO 08008KT 10SM OVC009 13/13 A3023 RMK AO2
Observed
Feb-22 @ 18:55 UTC
Wind
  • 080° at 8 KTS
Visibility
10 SM
Flight Rules
IFR
Cloud Levels
  • Overcast at 900' AGL
Temperature
13°C / 55°F
Dewpoint
13°C / 55°F
Humidity
100%
Altimeter
30.23" Hg
Pressure
1023.72 hPa
Previous

55 mins ago

KGGE 221835Z AUTO 06011G15KT 10SM OVC007 13/13 A3023 RMK AO2
Observed
Feb-22 @ 18:35 UTC
Wind
  • 060° at 11 KTS
  • Gusting to KTS
Visibility
10 SM
Flight Rules
IFR
Cloud Levels
  • Overcast at 700' AGL
Temperature
13°C / 55°F
Dewpoint
13°C / 55°F
Humidity
100%
Altimeter
30.23" Hg
Pressure
1023.72 hPa
Previous

1 hour ago

KGGE 221815Z AUTO 05008G14KT 10SM BKN005 OVC012 13/13 A3023 RMK AO2
Observed
Feb-22 @ 18:15 UTC
Wind
  • 050° at 8 KTS
  • Gusting to KTS
Visibility
10 SM
Flight Rules
IFR
Cloud Levels
  • Broken at 500' AGL
  • Overcast at 1,200' AGL
Temperature
13°C / 55°F
Dewpoint
13°C / 55°F
Humidity
100%
Altimeter
30.23" Hg
Pressure
1023.72 hPa